createdAt,value
2019-05-17T00:01:40.224Z,92.00
2019-05-17T00:04:07.340Z,92.30
2019-05-17T00:06:34.030Z,92.70
2019-05-17T00:09:00.958Z,92.70
2019-05-17T00:11:27.887Z,92.70
2019-05-17T00:13:54.507Z,92.80
2019-05-17T00:16:21.213Z,92.90
2019-05-17T00:18:47.753Z,93.10
2019-05-17T00:21:16.896Z,93.40
2019-05-17T00:23:43.406Z,93.30
2019-05-17T00:26:10.047Z,93.30
2019-05-17T00:28:37.500Z,93.30
2019-05-17T00:31:06.635Z,93.30
2019-05-17T00:33:33.421Z,93.40
2019-05-17T00:36:00.360Z,93.50
2019-05-17T00:38:27.517Z,93.00
2019-05-17T00:40:56.353Z,93.00
2019-05-17T00:43:22.860Z,93.30
2019-05-17T00:45:49.437Z,93.60
2019-05-17T00:48:17.116Z,94.00
2019-05-17T00:50:44.242Z,94.20
2019-05-17T00:53:10.881Z,94.10
2019-05-17T00:55:37.570Z,94.30
2019-05-17T00:58:06.437Z,94.50
2019-05-17T01:00:33.038Z,94.90
2019-05-17T01:02:59.674Z,95.10
2019-05-17T01:05:27.472Z,95.20
2019-05-17T01:07:54.349Z,95.40
2019-05-17T01:10:21.023Z,95.70
2019-05-17T01:12:48.232Z,95.80
2019-05-17T01:15:16.793Z,96.10
2019-05-17T01:17:47.319Z,96.50
2019-05-17T01:20:14.505Z,96.50
2019-05-17T01:22:41.127Z,96.70
2019-05-17T01:25:07.826Z,96.60
2019-05-17T01:27:34.564Z,96.60
2019-05-17T01:30:01.578Z,96.80
2019-05-17T01:32:28.437Z,97.20
2019-05-17T01:34:56.459Z,97.70
2019-05-17T01:37:23.407Z,97.90
2019-05-17T01:39:50.144Z,98.20
2019-05-17T01:42:17.296Z,98.10
2019-05-17T01:44:44.027Z,98.20
2019-05-17T01:47:24.411Z,98.30
2019-05-17T01:49:52.113Z,98.50
2019-05-17T01:52:18.867Z,98.70
2019-05-17T01:54:46.964Z,98.90
2019-05-17T01:57:16.834Z,98.80
2019-05-17T01:59:43.603Z,98.70
2019-05-17T02:02:16.416Z,98.70
2019-05-17T02:04:43.210Z,99.00
2019-05-17T02:07:10.135Z,99.20
2019-05-17T02:09:40.643Z,99.60
2019-05-17T02:12:06.761Z,99.60
2019-05-17T02:14:33.483Z,99.60
2019-05-17T02:17:00.153Z,99.90
2019-05-17T02:19:27.646Z,99.90
2019-05-17T02:21:56.872Z,99.90
2019-05-17T02:24:22.889Z,99.80
2019-05-17T02:26:49.585Z,99.90
2019-05-17T02:29:16.426Z,99.90
2019-05-17T02:31:43.823Z,99.90
2019-05-17T02:34:13.905Z,99.90
2019-05-17T02:36:43.153Z,99.90
2019-05-17T02:39:12.903Z,99.90
2019-05-17T02:41:42.777Z,99.90
2019-05-17T02:44:07.973Z,99.90
2019-05-17T02:46:35.726Z,99.90
2019-05-17T02:49:03.550Z,99.90
2019-05-17T02:51:32.414Z,99.90
2019-05-17T02:53:59.137Z,99.90
2019-05-17T02:56:25.903Z,99.90
2019-05-17T02:58:53.347Z,99.90
2019-05-17T03:01:23.081Z,99.90
2019-05-17T03:03:52.620Z,99.90
2019-05-17T03:06:17.789Z,99.90
2019-05-17T03:08:44.543Z,99.90
2019-05-17T03:11:13.566Z,99.90
2019-05-17T03:13:43.207Z,99.90
2019-05-17T03:16:08.691Z,99.90
2019-05-17T03:18:35.325Z,99.90
2019-05-17T03:21:03.714Z,99.90
2019-05-17T03:23:32.851Z,99.90
2019-05-17T03:25:59.498Z,99.90
2019-05-17T03:28:26.133Z,99.90
2019-05-17T03:30:56.252Z,99.90
2019-05-17T03:33:26.714Z,99.90
2019-05-17T03:35:56.513Z,99.90
2019-05-17T03:38:22.792Z,99.90
2019-05-17T03:41:11.914Z,99.90
2019-05-17T03:43:18.882Z,99.90
2019-05-17T03:45:45.522Z,99.90
2019-05-17T03:48:12.923Z,99.90
2019-05-17T03:50:39.959Z,99.90
2019-05-17T03:53:06.665Z,99.90
2019-05-17T03:55:33.589Z,99.90
2019-05-17T03:58:03.276Z,99.90
2019-05-17T04:00:29.010Z,99.90
2019-05-17T04:02:55.742Z,99.90
2019-05-17T04:05:22.853Z,99.90
2019-05-17T04:07:49.713Z,99.90
2019-05-17T04:10:16.692Z,99.90
2019-05-17T04:12:52.702Z,99.90
2019-05-17T04:15:18.471Z,99.90
2019-05-17T04:17:45.542Z,99.90
2019-05-17T04:20:13.707Z,99.90
2019-05-17T04:22:43.982Z,99.90
2019-05-17T04:25:13.417Z,99.90
2019-05-17T04:27:43.151Z,99.90
2019-05-17T04:30:07.993Z,99.90
2019-05-17T04:32:34.937Z,99.90
2019-05-17T04:35:03.766Z,99.90
2019-05-17T04:37:33.917Z,99.90
2019-05-17T04:40:03.593Z,99.90
2019-05-17T04:42:29.184Z,99.90
2019-05-17T04:44:55.796Z,99.90
2019-05-17T04:47:23.137Z,99.90
2019-05-17T04:49:53.336Z,99.90
2019-05-17T04:52:18.569Z,99.90
2019-05-17T04:54:45.283Z,99.90
2019-05-17T04:57:13.138Z,99.90
2019-05-17T04:59:43.167Z,99.90
2019-05-17T05:02:13.178Z,99.90
2019-05-17T05:04:43.199Z,99.90
2019-05-17T05:07:08.577Z,99.90
2019-05-17T05:09:36.341Z,99.90
2019-05-17T05:12:06.240Z,99.90
2019-05-17T05:14:32.818Z,99.90
2019-05-17T05:17:02.387Z,99.90
2019-05-17T05:19:28.537Z,99.90
2019-05-17T05:21:55.363Z,99.90
2019-05-17T05:24:22.333Z,99.90
2019-05-17T05:26:49.260Z,99.90
2019-05-17T05:29:16.025Z,99.90
2019-05-17T05:31:42.848Z,99.90
2019-05-17T05:34:12.168Z,99.90
2019-05-17T05:36:38.262Z,99.90
2019-05-17T05:39:06.140Z,99.90
2019-05-17T05:41:32.988Z,99.90
2019-05-17T05:44:01.889Z,99.90
2019-05-17T05:46:28.312Z,99.90
2019-05-17T05:48:54.938Z,99.90
2019-05-17T05:51:22.796Z,99.90
2019-05-17T05:53:49.432Z,99.90
2019-05-17T05:56:16.096Z,99.90
2019-05-17T05:58:42.942Z,99.90
2019-05-17T06:01:12.552Z,99.90
2019-05-17T06:03:38.333Z,99.90
2019-05-17T06:06:04.949Z,99.90
2019-05-17T06:08:32.301Z,99.90
2019-05-17T06:11:01.942Z,99.90
2019-05-17T06:13:27.762Z,99.90
2019-05-17T06:15:59.634Z,99.90
2019-05-17T06:18:26.499Z,99.90
2019-05-17T06:20:53.160Z,99.90
2019-05-17T06:23:23.486Z,99.90
2019-05-17T06:25:52.156Z,99.90
2019-05-17T06:28:22.319Z,99.90
2019-05-17T06:30:51.965Z,99.90
2019-05-17T06:33:27.997Z,99.90
2019-05-17T06:35:49.686Z,99.90
2019-05-17T06:38:16.392Z,99.90
2019-05-17T06:40:43.166Z,99.90
2019-05-17T06:43:12.913Z,99.90
2019-05-17T06:45:38.776Z,99.90
2019-05-17T06:48:06.625Z,99.90
2019-05-17T06:50:33.439Z,99.90
2019-05-17T06:53:02.927Z,99.90
2019-05-17T06:55:28.676Z,99.90
2019-05-17T06:57:56.670Z,99.90
2019-05-17T07:00:24.044Z,99.90
2019-05-17T07:02:51.024Z,99.90
2019-05-17T07:05:20.117Z,99.90
2019-05-17T07:07:49.589Z,99.90
2019-05-17T07:10:16.180Z,99.90
2019-05-17T07:12:54.881Z,99.90
2019-05-17T07:15:11.674Z,99.90
2019-05-17T07:17:40.073Z,99.90
2019-05-17T07:20:10.231Z,99.90
2019-05-17T07:22:35.992Z,99.90
2019-05-17T07:25:05.327Z,99.90
2019-05-17T07:27:41.256Z,99.90
2019-05-17T07:30:00.704Z,99.90
2019-05-17T07:32:29.648Z,99.90
2019-05-17T07:34:55.767Z,99.90
2019-05-17T07:37:22.592Z,99.90
2019-05-17T07:39:58.616Z,99.90
2019-05-17T07:42:19.554Z,99.90
2019-05-17T07:45:10.087Z,99.90
2019-05-17T07:47:36.671Z,99.90
2019-05-17T07:50:05.231Z,99.90
2019-05-17T07:52:31.910Z,99.90
2019-05-17T07:55:02.401Z,99.90
2019-05-17T07:57:26.997Z,99.90
2019-05-17T07:59:54.764Z,99.90
2019-05-17T08:02:21.604Z,99.90
2019-05-17T08:04:50.170Z,99.90
2019-05-17T08:07:19.523Z,99.90
2019-05-17T08:09:46.058Z,99.90
2019-05-17T08:12:12.771Z,99.90
2019-05-17T08:14:40.079Z,99.90
2019-05-17T08:17:06.966Z,99.90
2019-05-17T08:19:37.133Z,99.90
2019-05-17T08:22:03.865Z,99.90
2019-05-17T08:24:30.617Z,99.90
2019-05-17T08:26:59.667Z,99.90
2019-05-17T08:29:25.795Z,99.90
2019-05-17T08:31:53.083Z,99.90
2019-05-17T08:34:21.947Z,99.90
2019-05-17T08:36:49.847Z,99.90
2019-05-17T08:39:19.716Z,99.90
2019-05-17T08:41:49.769Z,99.90
2019-05-17T08:44:16.287Z,99.90
2019-05-17T08:46:43.105Z,99.90
2019-05-17T08:49:11.257Z,99.90
2019-05-17T08:51:39.714Z,99.90
2019-05-17T08:54:20.047Z,99.90
2019-05-17T08:56:46.801Z,99.90
2019-05-17T08:59:13.648Z,99.90
2019-05-17T09:01:41.868Z,99.90
2019-05-17T09:04:09.284Z,99.90
2019-05-17T09:06:36.535Z,99.90
2019-05-17T09:09:05.137Z,99.90
2019-05-17T09:11:31.912Z,99.90
2019-05-17T09:14:01.934Z,99.90
2019-05-17T09:16:27.162Z,99.90
2019-05-17T09:18:53.841Z,99.90
2019-05-17T09:21:21.926Z,99.90
2019-05-17T09:23:50.356Z,99.90
2019-05-17T09:26:20.041Z,99.90
2019-05-17T09:28:49.820Z,99.90
2019-05-17T09:31:15.883Z,99.90
2019-05-17T09:33:42.491Z,99.90
2019-05-17T09:36:10.156Z,99.90
2019-05-17T09:38:36.962Z,99.90
2019-05-17T09:41:05.017Z,99.90
2019-05-17T09:43:31.759Z,99.90
2019-05-17T09:46:01.253Z,99.90
2019-05-17T09:48:27.386Z,99.90
2019-05-17T09:50:54.090Z,99.90
2019-05-17T09:53:20.765Z,99.90
2019-05-17T09:55:49.632Z,99.90
2019-05-17T09:58:16.306Z,99.90
2019-05-17T10:00:42.997Z,99.90
2019-05-17T10:03:10.066Z,99.90
2019-05-17T10:05:37.050Z,99.90
2019-05-17T10:08:03.872Z,99.90
2019-05-17T10:10:30.506Z,99.90
2019-05-17T10:12:57.115Z,99.90
2019-05-17T10:15:24.195Z,99.90
2019-05-17T10:17:50.967Z,99.90
2019-05-17T10:20:19.821Z,99.90
2019-05-17T10:22:46.244Z,99.90
2019-05-17T10:25:13.247Z,99.90
2019-05-17T10:27:40.640Z,99.90
2019-05-17T10:30:10.339Z,99.90
2019-05-17T10:32:40.805Z,99.90
2019-05-17T10:35:06.966Z,99.90
2019-05-17T10:37:33.599Z,99.90
2019-05-17T10:40:00.430Z,99.90
2019-05-17T10:42:27.285Z,99.90
2019-05-17T10:44:54.787Z,99.90
2019-05-17T10:47:21.810Z,99.90
2019-05-17T10:49:49.666Z,99.90
2019-05-17T10:52:16.386Z,99.90
2019-05-17T10:54:43.127Z,99.90
2019-05-17T10:57:10.422Z,99.90
2019-05-17T10:59:37.625Z,99.90
2019-05-17T11:02:04.389Z,99.90
2019-05-17T11:04:30.998Z,99.90
2019-05-17T11:06:59.589Z,99.90
2019-05-17T11:09:26.489Z,99.90
2019-05-17T11:11:53.153Z,99.90
2019-05-17T11:14:19.817Z,99.90
2019-05-17T11:16:46.455Z,99.90
2019-05-17T11:19:13.169Z,99.90
2019-05-17T11:21:39.932Z,99.90
2019-05-17T11:24:09.685Z,99.90
2019-05-17T11:26:50.248Z,99.90
2019-05-17T11:29:16.942Z,99.90
2019-05-17T11:31:43.613Z,99.90
2019-05-17T11:34:10.219Z,99.90
2019-05-17T11:36:36.882Z,99.90
2019-05-17T11:39:05.310Z,99.90
2019-05-17T11:41:32.016Z,99.90
2019-05-17T11:43:59.767Z,99.90
2019-05-17T11:46:35.812Z,99.90
2019-05-17T11:48:54.986Z,99.90
2019-05-17T11:51:21.719Z,99.90
2019-05-17T11:53:48.406Z,99.90
2019-05-17T11:56:15.013Z,99.90
2019-05-17T11:58:41.644Z,99.90
2019-05-17T12:01:08.604Z,99.90
2019-05-17T12:03:35.222Z,99.90
2019-05-17T12:06:02.056Z,99.90
2019-05-17T12:08:28.828Z,99.90
2019-05-17T12:10:55.794Z,99.90
2019-05-17T12:13:22.627Z,99.90
2019-05-17T12:15:49.337Z,99.90
2019-05-17T12:18:17.920Z,99.90
2019-05-17T12:20:44.579Z,99.90
2019-05-17T12:23:11.541Z,99.90
2019-05-17T12:25:40.180Z,99.90
2019-05-17T12:28:06.842Z,99.90
2019-05-17T12:30:33.881Z,99.90
2019-05-17T12:33:00.608Z,99.90
2019-05-17T12:35:27.387Z,99.90
2019-05-17T12:37:54.134Z,99.90
2019-05-17T12:40:21.118Z,99.90
2019-05-17T12:42:49.746Z,99.90
2019-05-17T12:45:16.590Z,99.90
2019-05-17T12:47:43.280Z,99.90
2019-05-17T12:50:10.294Z,99.90
2019-05-17T12:52:37.100Z,99.90
2019-05-17T12:55:07.263Z,99.90
2019-05-17T12:57:36.011Z,99.90
2019-05-17T13:00:05.082Z,99.90
2019-05-17T13:02:31.822Z,99.90
2019-05-17T13:04:58.819Z,99.90
2019-05-17T13:07:25.406Z,99.90
2019-05-17T13:09:53.360Z,99.90
2019-05-17T13:12:20.114Z,99.90
2019-05-17T13:14:46.734Z,99.90
2019-05-17T13:17:13.580Z,99.90
2019-05-17T13:19:40.326Z,99.90
2019-05-17T13:22:07.145Z,99.90
2019-05-17T13:24:33.915Z,99.90
2019-05-17T13:27:00.548Z,99.90
2019-05-17T13:29:30.115Z,99.90
2019-05-17T13:31:56.849Z,99.90
2019-05-17T13:34:23.522Z,99.90
2019-05-17T13:36:50.288Z,99.90
2019-05-17T13:39:16.927Z,99.90
2019-05-17T13:41:43.574Z,99.90
2019-05-17T13:44:10.324Z,99.90
2019-05-17T13:46:40.300Z,99.90
2019-05-17T13:49:06.973Z,99.90
2019-05-17T13:51:34.076Z,99.90
2019-05-17T13:54:00.768Z,99.90
2019-05-17T13:56:27.452Z,99.90
2019-05-17T13:58:54.091Z,99.90
2019-05-17T14:01:29.065Z,99.90
2019-05-17T14:03:55.886Z,99.90
2019-05-17T14:06:22.510Z,99.90
2019-05-17T14:08:49.346Z,99.90
2019-05-17T14:11:16.135Z,99.90
2019-05-17T14:13:42.913Z,99.90
2019-05-17T14:16:09.541Z,99.90
2019-05-17T14:18:36.350Z,99.90
2019-05-17T14:21:03.276Z,99.90
2019-05-17T14:23:30.198Z,99.90
2019-05-17T14:25:56.860Z,99.90
2019-05-17T14:28:23.779Z,99.90
2019-05-17T14:30:50.400Z,99.90
2019-05-17T14:33:18.570Z,99.90
2019-05-17T14:35:45.341Z,99.90
2019-05-17T14:38:12.181Z,99.90
2019-05-17T14:41:04.991Z,99.90
2019-05-17T14:43:07.386Z,99.90
2019-05-17T14:45:34.112Z,99.90
2019-05-17T14:48:01.127Z,99.90
2019-05-17T14:50:27.779Z,99.90
2019-05-17T14:52:54.385Z,99.90
2019-05-17T14:55:21.069Z,99.90
2019-05-17T14:57:48.284Z,99.90
2019-05-17T15:00:15.070Z,99.90
2019-05-17T15:02:41.825Z,99.90
2019-05-17T15:05:09.171Z,99.90
2019-05-17T15:07:36.081Z,99.90
2019-05-17T15:10:06.131Z,99.90
2019-05-17T15:12:32.768Z,99.90
2019-05-17T15:14:59.615Z,99.90
2019-05-17T15:17:26.532Z,99.90
2019-05-17T15:19:53.700Z,99.90
2019-05-17T15:22:22.203Z,99.90
2019-05-17T15:24:49.243Z,99.90
2019-05-17T15:27:15.982Z,99.90
2019-05-17T15:29:42.625Z,99.90
2019-05-17T15:32:09.243Z,99.90
2019-05-17T15:34:35.979Z,99.90
2019-05-17T15:37:03.030Z,99.90
2019-05-17T15:39:29.743Z,99.90
2019-05-17T15:41:56.419Z,99.90
2019-05-17T15:44:26.855Z,99.90
2019-05-17T15:46:52.143Z,99.90
2019-05-17T15:49:18.836Z,99.90
2019-05-17T15:51:45.539Z,99.90
2019-05-17T15:54:12.177Z,99.90
2019-05-17T15:56:38.819Z,99.90
2019-05-17T15:59:05.746Z,99.90
2019-05-17T16:01:32.411Z,99.90
2019-05-17T16:03:59.172Z,99.90
2019-05-17T16:06:26.142Z,99.90
2019-05-17T16:08:52.799Z,99.90
2019-05-17T16:11:20.779Z,99.90
2019-05-17T16:13:47.527Z,99.90
2019-05-17T16:16:14.374Z,99.90
2019-05-17T16:18:41.093Z,99.90
2019-05-17T16:21:08.085Z,99.90
2019-05-17T16:23:34.737Z,99.90
2019-05-17T16:26:01.441Z,99.90
2019-05-17T16:28:28.339Z,99.90
2019-05-17T16:30:55.029Z,99.90
2019-05-17T16:33:21.793Z,99.90
2019-05-17T16:35:48.515Z,99.90
2019-05-17T16:38:15.272Z,99.90
2019-05-17T16:40:42.197Z,99.90
2019-05-17T16:43:17.790Z,99.90
2019-05-17T16:45:37.482Z,99.90
2019-05-17T16:48:05.037Z,99.90
2019-05-17T16:50:31.669Z,99.90
2019-05-17T16:53:06.098Z,99.90
2019-05-17T16:55:27.832Z,99.90
2019-05-17T16:57:55.701Z,99.90
2019-05-17T17:00:29.180Z,99.90
2019-05-17T17:02:56.114Z,99.90
2019-05-17T17:05:22.744Z,99.90
2019-05-17T17:07:49.742Z,99.90
2019-05-17T17:10:16.411Z,99.90
2019-05-17T17:12:43.173Z,99.90
2019-05-17T17:15:10.528Z,99.90
2019-05-17T17:17:39.113Z,99.90
2019-05-17T17:20:06.350Z,99.90
2019-05-17T17:22:32.979Z,99.90
2019-05-17T17:24:59.829Z,99.90
2019-05-17T17:27:26.543Z,99.90
2019-05-17T17:29:53.276Z,99.90
2019-05-17T17:32:21.778Z,99.90
2019-05-17T17:34:48.589Z,99.90
2019-05-17T17:37:15.327Z,99.90
2019-05-17T17:39:41.971Z,99.90
2019-05-17T17:42:08.743Z,99.90
2019-05-17T17:44:35.817Z,99.90
2019-05-17T17:47:02.774Z,99.90
2019-05-17T17:49:29.460Z,99.90
2019-05-17T17:51:56.185Z,99.90
2019-05-17T17:54:23.239Z,99.90
2019-05-17T17:56:49.873Z,99.90
2019-05-17T17:59:16.497Z,99.90
2019-05-17T18:01:43.236Z,99.90
2019-05-17T18:04:12.016Z,99.90
2019-05-17T18:06:38.662Z,99.90
2019-05-17T18:09:18.365Z,99.90
2019-05-17T18:11:51.520Z,99.90
2019-05-17T18:14:18.395Z,99.90
2019-05-17T18:16:45.168Z,99.90
2019-05-17T18:19:11.983Z,99.90
2019-05-17T18:21:38.724Z,99.90
2019-05-17T18:24:05.579Z,99.90
2019-05-17T18:26:33.492Z,99.90
2019-05-17T18:29:00.578Z,99.90
2019-05-17T18:31:27.350Z,99.90
2019-05-17T18:33:54.226Z,99.90
2019-05-17T18:36:20.896Z,99.90
2019-05-17T18:38:51.296Z,99.90
2019-05-17T18:41:19.040Z,99.90
2019-05-17T18:43:46.120Z,99.90
2019-05-17T18:46:14.232Z,99.90
2019-05-17T18:48:41.564Z,99.90
2019-05-17T18:51:08.603Z,99.90
2019-05-17T18:53:35.424Z,99.90
2019-05-17T18:56:02.404Z,99.90
2019-05-17T18:58:29.107Z,99.90
2019-05-17T19:00:55.837Z,99.90
2019-05-17T19:03:22.490Z,99.90
2019-05-17T19:05:49.279Z,99.90
2019-05-17T19:08:15.974Z,99.90
2019-05-17T19:10:42.798Z,99.90
2019-05-17T19:13:09.561Z,99.90
2019-05-17T19:15:36.709Z,99.90
2019-05-17T19:18:03.485Z,99.90
2019-05-17T19:20:30.328Z,99.90
2019-05-17T19:22:57.706Z,99.90
2019-05-17T19:25:24.442Z,99.90
2019-05-17T19:27:51.156Z,99.90
2019-05-17T19:30:18.464Z,99.90
2019-05-17T19:32:45.162Z,99.90
2019-05-17T19:35:12.038Z,99.90
2019-05-17T19:37:38.799Z,99.90
2019-05-17T19:40:06.564Z,99.90
2019-05-17T19:42:33.586Z,99.90
2019-05-17T19:45:00.394Z,99.90
2019-05-17T19:47:28.574Z,99.90
2019-05-17T19:49:55.315Z,99.90
2019-05-17T19:52:22.135Z,99.90
2019-05-17T19:54:49.016Z,99.90
2019-05-17T19:57:15.916Z,99.90
2019-05-17T19:59:42.746Z,99.90
2019-05-17T20:02:10.460Z,99.90
2019-05-17T20:04:37.452Z,99.90
2019-05-17T20:07:04.235Z,99.90
2019-05-17T20:09:30.864Z,99.90
2019-05-17T20:11:57.646Z,99.90
2019-05-17T20:14:26.281Z,99.90
2019-05-17T20:16:53.014Z,99.90
2019-05-17T20:19:19.752Z,99.90
2019-05-17T20:21:46.554Z,99.90
2019-05-17T20:24:13.603Z,99.90
2019-05-17T20:26:40.438Z,99.90
2019-05-17T20:29:07.134Z,99.90
2019-05-17T20:31:36.160Z,99.90
2019-05-17T20:34:03.182Z,99.90
2019-05-17T20:36:30.102Z,99.90
2019-05-17T20:38:56.804Z,99.90
2019-05-17T20:41:23.596Z,99.90
2019-05-17T20:43:50.317Z,99.90
2019-05-17T20:46:16.975Z,99.90
2019-05-17T20:48:44.174Z,99.90
2019-05-17T20:51:10.853Z,99.90
2019-05-17T20:53:37.522Z,99.90
2019-05-17T20:56:04.571Z,99.90
2019-05-17T20:58:31.347Z,99.90
2019-05-17T21:00:58.018Z,99.90
2019-05-17T21:03:24.783Z,99.90
2019-05-17T21:05:52.617Z,99.90
2019-05-17T21:08:19.257Z,99.90
2019-05-17T21:10:45.903Z,99.90
2019-05-17T21:13:12.631Z,99.90
2019-05-17T21:15:47.407Z,99.90
2019-05-17T21:18:08.032Z,99.90
2019-05-17T21:20:34.863Z,99.90
2019-05-17T21:23:01.654Z,99.90
2019-05-17T21:25:28.410Z,99.90
2019-05-17T21:27:55.062Z,99.90
2019-05-17T21:30:28.963Z,99.90
2019-05-17T21:32:55.847Z,99.90
2019-05-17T21:35:22.604Z,99.90
2019-05-17T21:37:49.551Z,99.90
2019-05-17T21:40:16.557Z,99.90
2019-05-17T21:42:43.275Z,99.90
2019-05-17T21:45:10.308Z,99.90
2019-05-17T21:47:37.168Z,99.90
2019-05-17T21:50:03.997Z,99.90
2019-05-17T21:52:30.540Z,99.90
2019-05-17T21:54:57.178Z,99.90
2019-05-17T21:57:23.965Z,99.90
2019-05-17T21:59:50.629Z,99.90
2019-05-17T22:02:17.444Z,99.90
2019-05-17T22:04:44.075Z,99.90
2019-05-17T22:07:11.044Z,99.90
2019-05-17T22:09:37.667Z,99.90
2019-05-17T22:12:06.429Z,99.90
2019-05-17T22:14:33.156Z,99.90
2019-05-17T22:17:15.349Z,99.90
2019-05-17T22:19:41.887Z,99.90
2019-05-17T22:22:09.658Z,99.90
2019-05-17T22:24:36.316Z,99.90
2019-05-17T22:27:03.154Z,99.90
2019-05-17T22:29:29.928Z,99.90
2019-05-17T22:31:56.571Z,99.90
2019-05-17T22:34:23.203Z,99.90
2019-05-17T22:36:49.832Z,99.90
2019-05-17T22:39:16.482Z,99.90
2019-05-17T22:41:43.235Z,99.90
2019-05-17T22:44:09.994Z,99.90
2019-05-17T22:46:36.803Z,99.90
2019-05-17T22:49:03.433Z,99.90
2019-05-17T22:51:31.338Z,99.90
2019-05-17T22:53:57.872Z,99.90
2019-05-17T22:56:24.526Z,99.90
2019-05-17T22:58:52.298Z,99.90
2019-05-17T23:01:18.883Z,99.90
2019-05-17T23:03:45.593Z,99.90
2019-05-17T23:06:12.270Z,99.90
2019-05-17T23:08:38.937Z,99.90
2019-05-17T23:11:06.054Z,99.90
2019-05-17T23:13:35.033Z,99.90
2019-05-17T23:16:03.855Z,99.90
2019-05-17T23:18:32.352Z,99.90
2019-05-17T23:20:59.075Z,99.90
2019-05-17T23:23:25.697Z,99.90
2019-05-17T23:25:52.510Z,99.90
2019-05-17T23:28:19.269Z,99.90
2019-05-17T23:30:45.900Z,99.90
2019-05-17T23:33:12.649Z,99.90
2019-05-17T23:35:39.489Z,99.90
2019-05-17T23:38:06.178Z,99.90
2019-05-17T23:40:32.812Z,99.90
2019-05-17T23:42:59.432Z,99.90
2019-05-17T23:45:26.028Z,99.90
2019-05-17T23:47:56.781Z,99.90
2019-05-17T23:50:23.409Z,99.90
2019-05-17T23:52:50.243Z,99.90
2019-05-17T23:55:17.206Z,99.90
2019-05-17T23:57:43.969Z,99.90
